createdAt,value
2019-03-02T00:00:14.345Z,19.5
2019-03-02T00:01:14.650Z,19.5
2019-03-02T00:02:14.318Z,19.5
2019-03-02T00:03:14.351Z,19.25
2019-03-02T00:04:14.554Z,19.5
2019-03-02T00:05:14.286Z,19.25
2019-03-02T00:06:14.374Z,19.25
2019-03-02T00:07:14.722Z,19.25
2019-03-02T00:08:14.386Z,19.25
2019-03-02T00:09:14.457Z,19.25
2019-03-02T00:10:14.215Z,19.25
2019-03-02T00:11:14.347Z,19.25
2019-03-02T00:12:14.375Z,19.25
2019-03-02T00:13:14.220Z,19.25
2019-03-02T00:14:20.026Z,19.25
2019-03-02T00:15:14.542Z,19.25
2019-03-02T00:16:14.232Z,19.25
2019-03-02T00:17:20.353Z,19.25
2019-03-02T00:18:14.389Z,19.25
2019-03-02T00:19:14.267Z,19.25
2019-03-02T00:20:19.383Z,19.25
2019-03-02T00:21:14.395Z,19.25
2019-03-02T00:22:14.150Z,19.25
2019-03-02T00:23:19.884Z,19.25
2019-03-02T00:24:14.391Z,19.25
2019-03-02T00:25:14.196Z,19.25
2019-03-02T00:26:14.348Z,19.25
2019-03-02T00:27:14.305Z,19.25
2019-03-02T00:28:14.165Z,19.25
2019-03-02T00:29:14.314Z,19.25
2019-03-02T00:30:22.292Z,19.25
2019-03-02T00:31:14.479Z,19.25
2019-03-02T00:32:14.247Z,19.25
2019-03-02T00:33:21.149Z,19.25
2019-03-02T00:34:14.429Z,19.25
2019-03-02T00:35:14.250Z,19.25
2019-03-02T00:36:20.285Z,19.25
2019-03-02T00:37:14.470Z,19.25
2019-03-02T00:38:14.257Z,19.25
2019-03-02T00:39:20.101Z,19.25
2019-03-02T00:40:14.431Z,19.25
2019-03-02T00:41:14.281Z,19.25
2019-03-02T00:42:17.951Z,19.25
2019-03-02T00:43:14.434Z,19.25
2019-03-02T00:44:14.250Z,19.25
2019-03-02T00:45:15.699Z,19.25
2019-03-02T00:46:14.522Z,19.25
2019-03-02T00:47:14.285Z,19.25
2019-03-02T00:48:14.297Z,19.25
2019-03-02T00:49:14.438Z,19.25
2019-03-02T00:50:14.313Z,19.25
2019-03-02T00:51:14.376Z,19.25
2019-03-02T00:52:14.378Z,19.25
2019-03-02T00:53:14.263Z,19.25
2019-03-02T00:54:14.272Z,19.25
2019-03-02T00:55:14.362Z,19.25
2019-03-02T00:56:14.221Z,19.25
2019-03-02T00:57:19.756Z,19.25
2019-03-02T00:58:14.462Z,19.25
2019-03-02T00:59:14.232Z,19.25
2019-03-02T01:00:16.583Z,19.25
2019-03-02T01:01:14.430Z,19.25
2019-03-02T01:02:14.168Z,19.25
2019-03-02T01:03:17.025Z,19.25
2019-03-02T01:04:14.408Z,19.25
2019-03-02T01:05:14.179Z,19.25
2019-03-02T01:06:14.207Z,19.25
2019-03-02T01:07:14.393Z,19.25
2019-03-02T01:08:14.202Z,19.25
2019-03-02T01:09:14.241Z,19.25
2019-03-02T01:10:14.406Z,19.25
2019-03-02T01:11:14.293Z,19.25
2019-03-02T01:12:14.392Z,19.25
2019-03-02T01:13:23.219Z,19.25
2019-03-02T01:14:14.201Z,19.25
2019-03-02T01:15:14.268Z,19
2019-03-02T01:16:21.189Z,19.25
2019-03-02T01:17:14.167Z,19.25
2019-03-02T01:18:14.264Z,19
2019-03-02T01:19:18.564Z,19
2019-03-02T01:20:14.396Z,19
2019-03-02T01:21:14.335Z,19
2019-03-02T01:22:17.572Z,19
2019-03-02T01:23:14.787Z,19
2019-03-02T01:24:14.199Z,19
2019-03-02T01:25:14.667Z,19
2019-03-02T01:26:14.392Z,19
2019-03-02T01:27:14.354Z,19
2019-03-02T01:28:14.330Z,19
2019-03-02T01:29:20.564Z,19
2019-03-02T01:30:14.368Z,19
2019-03-02T01:31:14.330Z,19
2019-03-02T01:32:17.642Z,19
2019-03-02T01:33:14.220Z,19
2019-03-02T01:34:14.510Z,19
2019-03-02T01:35:21.839Z,19
2019-03-02T01:36:14.162Z,19
2019-03-02T01:37:14.245Z,19
2019-03-02T01:38:19.707Z,19
2019-03-02T01:39:14.191Z,19
2019-03-02T01:40:14.350Z,19
2019-03-02T01:41:19.234Z,19
2019-03-02T01:42:14.170Z,19
2019-03-02T01:43:14.291Z,19
2019-03-02T01:44:17.719Z,19
2019-03-02T01:45:14.179Z,19
2019-03-02T01:46:14.499Z,19
2019-03-02T01:47:17.128Z,19
2019-03-02T01:48:14.302Z,19
2019-03-02T01:49:14.297Z,19
2019-03-02T01:50:14.362Z,19
2019-03-02T01:51:14.210Z,19
2019-03-02T01:52:14.348Z,19
2019-03-02T01:53:14.335Z,19
2019-03-02T01:54:14.158Z,19
2019-03-02T01:55:14.266Z,19
2019-03-02T01:56:14.305Z,19
2019-03-02T01:57:18.122Z,19
2019-03-02T01:58:14.293Z,19
2019-03-02T01:59:14.549Z,19
2019-03-02T02:00:14.797Z,19
2019-03-02T02:01:14.274Z,19
2019-03-02T02:02:14.285Z,19
2019-03-02T02:03:14.145Z,19
2019-03-02T02:04:14.316Z,19
2019-03-02T02:05:14.365Z,19
2019-03-02T02:06:14.115Z,19
2019-03-02T02:07:19.507Z,19
2019-03-02T02:08:14.298Z,19
2019-03-02T02:09:14.268Z,19
2019-03-02T02:10:14.382Z,19
2019-03-02T02:11:19.124Z,19
2019-03-02T02:12:14.164Z,19
2019-03-02T02:13:14.225Z,19
2019-03-02T02:14:20.068Z,19
2019-03-02T02:15:14.145Z,19
2019-03-02T02:16:14.299Z,19
2019-03-02T02:17:18.859Z,19
2019-03-02T02:18:14.160Z,19
2019-03-02T02:19:14.311Z,19
2019-03-02T02:20:15.623Z,19
2019-03-02T02:21:14.432Z,19
2019-03-02T02:22:14.224Z,19
2019-03-02T02:23:14.328Z,19
2019-03-02T02:24:14.462Z,19
2019-03-02T02:25:14.230Z,19
2019-03-02T02:26:14.435Z,19
2019-03-02T02:27:14.502Z,19
2019-03-02T02:28:14.262Z,19
2019-03-02T02:29:14.308Z,19
2019-03-02T02:30:27.370Z,19
2019-03-02T02:31:14.272Z,19
2019-03-02T02:32:18.974Z,19
2019-03-02T02:33:14.361Z,19
2019-03-02T02:34:23.929Z,19
2019-03-02T02:35:14.133Z,19
2019-03-02T02:36:20.636Z,19
2019-03-02T02:37:14.333Z,19
2019-03-02T02:38:17.806Z,19
2019-03-02T02:39:14.358Z,19
2019-03-02T02:40:14.410Z,19
2019-03-02T02:41:25.310Z,19
2019-03-02T02:42:14.236Z,19
2019-03-02T02:43:22.441Z,19
2019-03-02T02:44:14.179Z,19
2019-03-02T02:45:16.965Z,19
2019-03-02T02:46:14.334Z,19
2019-03-02T02:47:14.259Z,19
2019-03-02T02:48:14.260Z,19
2019-03-02T02:49:14.334Z,19
2019-03-02T02:50:14.192Z,19
2019-03-02T02:51:14.290Z,19
2019-03-02T02:52:14.300Z,19
2019-03-02T02:53:14.186Z,18.75
2019-03-02T02:54:14.367Z,19
2019-03-02T02:55:14.335Z,19
2019-03-02T02:56:21.576Z,19
2019-03-02T02:57:14.289Z,19
2019-03-02T02:58:19.591Z,18.75
2019-03-02T02:59:14.428Z,18.75
2019-03-02T03:00:17.966Z,18.75
2019-03-02T03:01:14.294Z,18.75
2019-03-02T03:02:14.411Z,18.75
2019-03-02T03:03:22.767Z,18.75
2019-03-02T03:04:14.277Z,18.75
2019-03-02T03:05:17.769Z,18.75
2019-03-02T03:06:14.302Z,18.75
2019-03-02T03:07:14.571Z,18.75
2019-03-02T03:08:14.365Z,18.75
2019-03-02T03:09:14.282Z,18.75
2019-03-02T03:10:14.259Z,18.75
2019-03-02T03:11:14.373Z,18.75
2019-03-02T03:12:25.045Z,18.75
2019-03-02T03:13:14.229Z,18.75
2019-03-02T03:14:21.658Z,18.75
2019-03-02T03:15:14.505Z,18.75
2019-03-02T03:16:18.175Z,18.75
2019-03-02T03:17:14.414Z,18.75
2019-03-02T03:18:15.577Z,18.75
2019-03-02T03:19:14.286Z,18.75
2019-03-02T03:20:14.361Z,18.75
2019-03-02T03:21:14.138Z,18.75
2019-03-02T03:22:14.334Z,18.75
2019-03-02T03:23:14.333Z,18.75
2019-03-02T03:24:14.179Z,18.75
2019-03-02T03:25:19.687Z,18.75
2019-03-02T03:26:14.293Z,18.75
2019-03-02T03:27:15.002Z,18.75
2019-03-02T03:28:14.153Z,18.75
2019-03-02T03:29:14.352Z,18.75
2019-03-02T03:30:14.135Z,18.75
2019-03-02T03:31:31.505Z,18.75
2019-03-02T03:32:14.340Z,18.75
2019-03-02T03:33:14.425Z,18.75
2019-03-02T03:35:20.466Z,18.75
2019-03-02T03:36:15.395Z,18.75
2019-03-02T03:37:15.306Z,18.75
2019-03-02T03:38:14.252Z,18.75
2019-03-02T03:39:14.279Z,18.75
2019-03-02T03:40:14.134Z,18.75
2019-03-02T03:41:14.280Z,18.75
2019-03-02T03:42:24.912Z,18.75
2019-03-02T03:43:14.422Z,18.75
2019-03-02T03:44:27.838Z,18.75
2019-03-02T03:45:14.200Z,18.75
2019-03-02T03:46:23.937Z,18.75
2019-03-02T03:47:14.179Z,18.75
2019-03-02T03:48:19.530Z,18.75
2019-03-02T03:49:14.426Z,18.75
2019-03-02T03:50:16.067Z,18.75
2019-03-02T03:51:14.227Z,18.75
2019-03-02T03:52:14.294Z,18.75
2019-03-02T03:53:14.284Z,18.75
2019-03-02T03:54:14.240Z,18.75
2019-03-02T03:55:27.860Z,18.75
2019-03-02T03:56:14.180Z,18.75
2019-03-02T03:57:22.934Z,18.75
2019-03-02T03:58:14.607Z,18.75
2019-03-02T03:59:20.827Z,18.75
2019-03-02T04:00:14.155Z,18.75
2019-03-02T04:01:19.420Z,18.75
2019-03-02T04:02:14.330Z,18.75
2019-03-02T04:03:15.252Z,18.75
2019-03-02T04:04:14.277Z,18.75
2019-03-02T04:05:14.266Z,18.75
2019-03-02T04:06:14.153Z,18.75
2019-03-02T04:07:14.258Z,18.75
2019-03-02T04:08:14.334Z,18.75
2019-03-02T04:09:14.277Z,18.75
2019-03-02T04:10:14.340Z,18.75
2019-03-02T04:11:14.291Z,18.75
2019-03-02T04:12:14.247Z,18.75
2019-03-02T04:13:14.320Z,18.75
2019-03-02T04:14:24.978Z,18.75
2019-03-02T04:15:14.123Z,18.75
2019-03-02T04:16:23.162Z,18.75
2019-03-02T04:17:14.270Z,18.75
2019-03-02T04:18:17.706Z,18.75
2019-03-02T04:19:14.299Z,18.75
2019-03-02T04:20:14.590Z,18.75
2019-03-02T04:21:14.279Z,18.75
2019-03-02T04:22:14.247Z,18.75
2019-03-02T04:23:23.552Z,18.75
2019-03-02T04:24:14.383Z,18.75
2019-03-02T04:25:19.822Z,18.75
2019-03-02T04:26:14.202Z,18.75
2019-03-02T04:27:17.281Z,18.75
2019-03-02T04:28:14.216Z,18.75
2019-03-02T04:29:14.251Z,18.75
2019-03-02T04:30:14.391Z,18.75
2019-03-02T04:31:14.151Z,18.75
2019-03-02T04:32:14.157Z,18.75
2019-03-02T04:33:14.354Z,18.75
2019-03-02T04:34:23.076Z,18.75
2019-03-02T04:35:14.170Z,18.75
2019-03-02T04:36:14.314Z,18.75
2019-03-02T04:37:14.035Z,18.75
2019-03-02T04:38:14.189Z,18.75
2019-03-02T04:39:15.227Z,18.75
2019-03-02T04:40:14.321Z,18.75
2019-03-02T04:41:14.157Z,18.75
2019-03-02T04:42:15.618Z,18.75
2019-03-02T04:43:14.316Z,18.75
2019-03-02T04:44:14.144Z,18.75
2019-03-02T04:45:14.221Z,18.75
2019-03-02T04:46:16.794Z,18.75
2019-03-02T04:47:14.104Z,18.75
2019-03-02T04:48:14.280Z,18.75
2019-03-02T04:49:15.694Z,18.75
2019-03-02T04:50:14.149Z,18.75
2019-03-02T04:51:14.350Z,18.75
2019-03-02T04:52:15.535Z,18.75
2019-03-02T04:53:14.106Z,18.75
2019-03-02T04:54:14.267Z,18.75
2019-03-02T04:55:15.013Z,18.75
2019-03-02T04:56:14.135Z,18.75
2019-03-02T04:57:14.267Z,18.75
2019-03-02T04:58:14.328Z,18.75
2019-03-02T04:59:14.253Z,18.75
2019-03-02T05:00:14.298Z,18.75
2019-03-02T05:01:14.319Z,18.75
2019-03-02T05:02:20.659Z,18.75
2019-03-02T05:03:14.450Z,18.75
2019-03-02T05:04:14.258Z,18.75
2019-03-02T05:05:14.210Z,18.75
2019-03-02T05:06:19.970Z,18.75
2019-03-02T05:07:14.452Z,18.75
2019-03-02T05:08:14.109Z,18.75
2019-03-02T05:09:18.065Z,18.75
2019-03-02T05:10:14.261Z,18.75
2019-03-02T05:11:14.121Z,18.75
2019-03-02T05:12:15.637Z,19
2019-03-02T05:13:14.291Z,19
2019-03-02T05:14:14.105Z,19
2019-03-02T05:15:17.802Z,19
2019-03-02T05:16:14.278Z,19
2019-03-02T05:17:14.248Z,19
2019-03-02T05:18:19.049Z,19
2019-03-02T05:19:14.225Z,19
2019-03-02T05:20:14.129Z,19
2019-03-02T05:21:14.198Z,19
2019-03-02T05:22:19.886Z,19
2019-03-02T05:23:14.095Z,19
2019-03-02T05:24:14.404Z,19
2019-03-02T05:25:20.312Z,19
2019-03-02T05:26:14.096Z,19
2019-03-02T05:27:14.277Z,19
2019-03-02T05:28:14.335Z,19
2019-03-02T05:29:18.618Z,19.25
2019-03-02T05:30:14.181Z,19
2019-03-02T05:31:14.217Z,19.25
2019-03-02T05:32:16.896Z,19.25
2019-03-02T05:33:14.240Z,19.25
2019-03-02T05:34:14.292Z,19.25
2019-03-02T05:35:17.024Z,19.25
2019-03-02T05:36:14.226Z,19.25
2019-03-02T05:37:14.374Z,19.25
2019-03-02T05:38:16.225Z,19.25
2019-03-02T05:39:18.175Z,19.25
2019-03-02T05:40:14.376Z,19.25
2019-03-02T05:41:14.088Z,19.25
2019-03-02T05:42:14.746Z,19.25
2019-03-02T05:43:14.217Z,19.25
2019-03-02T05:44:14.092Z,19.25
2019-03-02T05:45:14.343Z,19.25
2019-03-02T05:46:14.377Z,19.25
2019-03-02T05:47:14.149Z,19.25
2019-03-02T05:48:14.228Z,19.25
2019-03-02T05:49:19.561Z,19.5
2019-03-02T05:50:14.371Z,19.5
2019-03-02T05:51:14.244Z,19.5
2019-03-02T05:52:18.882Z,19.5
2019-03-02T05:53:14.066Z,19.5
2019-03-02T05:54:14.240Z,19.5
2019-03-02T05:55:19.316Z,19.5
2019-03-02T05:56:14.208Z,19.5
2019-03-02T05:57:14.215Z,19.5
2019-03-02T05:58:17.296Z,19.5
2019-03-02T05:59:14.116Z,19.5
2019-03-02T06:00:14.232Z,19.5
2019-03-02T06:01:14.287Z,19.5
2019-03-02T06:02:18.343Z,19.5
2019-03-02T06:03:14.248Z,19.5
2019-03-02T06:04:14.389Z,19.5
2019-03-02T06:05:14.118Z,19.5
2019-03-02T06:06:14.195Z,19.5
2019-03-02T06:07:14.703Z,19.5
2019-03-02T06:08:14.195Z,19.5
2019-03-02T06:09:15.045Z,19.5
2019-03-02T06:10:14.294Z,19.5
2019-03-02T06:11:14.038Z,19.5
2019-03-02T06:12:16.474Z,19.75
2019-03-02T06:13:14.248Z,19.5
2019-03-02T06:14:14.179Z,19.75
2019-03-02T06:15:14.205Z,19.75
2019-03-02T06:16:21.811Z,19.75
2019-03-02T06:17:14.055Z,19.75
2019-03-02T06:18:14.190Z,19.75
2019-03-02T06:19:24.283Z,19.75
2019-03-02T06:20:14.179Z,19.75
2019-03-02T06:21:14.188Z,19.75
2019-03-02T06:22:21.982Z,19.75
2019-03-02T06:23:14.045Z,19.75
2019-03-02T06:24:15.661Z,19.75
2019-03-02T06:25:23.322Z,19.75
2019-03-02T06:26:14.343Z,19.75
2019-03-02T06:27:14.200Z,19.75
2019-03-02T06:28:14.500Z,19.75
2019-03-02T06:29:14.724Z,19.75
2019-03-02T06:30:14.160Z,19.75
2019-03-02T06:31:20.174Z,19.75
2019-03-02T06:32:14.322Z,19.75
2019-03-02T06:33:14.132Z,19.75
2019-03-02T06:34:20.762Z,19.75
2019-03-02T06:35:14.517Z,19.75
2019-03-02T06:36:14.098Z,19.75
2019-03-02T06:37:20.931Z,19.75
2019-03-02T06:38:14.215Z,19.75
2019-03-02T06:39:14.169Z,19.75
2019-03-02T06:40:23.869Z,19.75
2019-03-02T06:41:14.216Z,19.75
2019-03-02T06:42:14.094Z,19.75
2019-03-02T06:43:14.167Z,19.75
2019-03-02T06:44:14.188Z,19.75
2019-03-02T06:45:14.102Z,19.75
2019-03-02T06:46:23.535Z,19.75
2019-03-02T06:47:14.238Z,19.75
2019-03-02T06:48:14.082Z,19.75
2019-03-02T06:49:21.262Z,19.75
2019-03-02T06:50:14.238Z,20
2019-03-02T06:51:14.020Z,20
2019-03-02T06:52:14.081Z,20
2019-03-02T06:53:14.249Z,20
2019-03-02T06:54:14.335Z,20
2019-03-02T06:55:14.120Z,20
2019-03-02T06:56:15.997Z,20
2019-03-02T06:57:15.193Z,20
2019-03-02T06:58:14.069Z,20
2019-03-02T06:59:14.179Z,20
2019-03-02T07:00:15.124Z,20
2019-03-02T07:01:14.038Z,20
2019-03-02T07:02:14.248Z,20
2019-03-02T07:03:14.281Z,20
2019-03-02T07:04:23.202Z,20
2019-03-02T07:05:14.266Z,20
2019-03-02T07:06:14.334Z,20
2019-03-02T07:07:14.044Z,20
2019-03-02T07:08:14.221Z,20
2019-03-02T07:09:14.263Z,20
2019-03-02T07:10:14.079Z,20
2019-03-02T07:11:14.238Z,20
2019-03-02T07:12:14.356Z,20
2019-03-02T07:13:14.103Z,20
2019-03-02T07:14:16.324Z,20
2019-03-02T07:15:14.225Z,20
2019-03-02T07:16:20.855Z,20
2019-03-02T07:17:14.192Z,20
2019-03-02T07:18:14.267Z,20
2019-03-02T07:19:17.876Z,20
2019-03-02T07:20:14.175Z,20
2019-03-02T07:21:14.360Z,20
2019-03-02T07:22:18.209Z,20
2019-03-02T07:23:14.150Z,20
2019-03-02T07:24:14.312Z,20
2019-03-02T07:25:14.866Z,20
2019-03-02T07:26:21.078Z,20
2019-03-02T07:27:14.239Z,20
2019-03-02T07:28:14.162Z,20
2019-03-02T07:29:18.866Z,20
2019-03-02T07:30:14.219Z,20
2019-03-02T07:31:14.031Z,20
2019-03-02T07:32:14.148Z,20
2019-03-02T07:33:14.340Z,20
2019-03-02T07:34:14.352Z,20
2019-03-02T07:35:20.732Z,20
2019-03-02T07:36:14.294Z,20
2019-03-02T07:37:14.019Z,20
2019-03-02T07:38:21.780Z,20
2019-03-02T07:39:14.166Z,20
2019-03-02T07:40:14.044Z,20
2019-03-02T07:41:14.115Z,20
2019-03-02T07:42:14.182Z,20
2019-03-02T07:43:14.063Z,20
2019-03-02T07:44:14.144Z,20
2019-03-02T07:45:14.307Z,20
2019-03-02T07:46:14.116Z,20
2019-03-02T07:47:14.112Z,20
2019-03-02T07:48:14.265Z,20
2019-03-02T07:49:14.527Z,20.25
2019-03-02T07:50:14.129Z,20.25
2019-03-02T07:51:14.155Z,20.25
2019-03-02T07:52:18.675Z,20.25
2019-03-02T07:53:14.194Z,20.25
2019-03-02T07:54:14.181Z,20.25
2019-03-02T07:55:22.720Z,20.25
2019-03-02T07:56:14.181Z,20.25
2019-03-02T07:57:14.121Z,20.25
2019-03-02T07:58:20.958Z,20.25
2019-03-02T07:59:14.101Z,20.25
2019-03-02T08:00:14.072Z,20.25
2019-03-02T08:01:17.976Z,20.25
2019-03-02T08:02:14.083Z,20.25
2019-03-02T08:03:14.125Z,20.25
2019-03-02T08:04:14.286Z,20.25
2019-03-02T08:05:15.542Z,20.25
2019-03-02T08:06:14.218Z,20.25
2019-03-02T08:07:14.018Z,20.25
2019-03-02T08:08:15.175Z,20.25
2019-03-02T08:09:14.143Z,20.25
2019-03-02T08:10:14.025Z,20.25
2019-03-02T08:11:14.476Z,20.25
2019-03-02T08:12:14.339Z,20.25
2019-03-02T08:13:14.099Z,20.25
2019-03-02T08:14:16.327Z,20.25
2019-03-02T08:15:14.150Z,20.25
2019-03-02T08:16:14.450Z,20.25
2019-03-02T08:17:14.624Z,20.25
2019-03-02T08:18:14.505Z,20.25
2019-03-02T08:19:14.153Z,20.25
2019-03-02T08:20:14.166Z,20.25
2019-03-02T08:21:14.278Z,20.25
2019-03-02T08:22:14.067Z,20.25
2019-03-02T08:23:14.853Z,20.25
2019-03-02T08:24:14.316Z,20.25
2019-03-02T08:25:14.029Z,20.25
2019-03-02T08:26:14.186Z,20.25
2019-03-02T08:27:14.150Z,20.25
2019-03-02T08:28:14.035Z,20.25
2019-03-02T08:29:14.135Z,20.25
2019-03-02T08:30:14.200Z,20.25
2019-03-02T08:31:14.135Z,20.25
2019-03-02T08:32:14.103Z,20.25
2019-03-02T08:33:14.253Z,20.25
2019-03-02T08:34:14.112Z,20.25
2019-03-02T08:35:14.146Z,20.25
2019-03-02T08:36:18.428Z,20.25
2019-03-02T08:37:14.144Z,20.25
2019-03-02T08:38:14.277Z,20.25
2019-03-02T08:39:14.888Z,20.25
2019-03-02T08:40:14.002Z,20.25
2019-03-02T08:41:14.113Z,20.25
2019-03-02T08:42:14.267Z,20.25
2019-03-02T08:43:17.360Z,20.25
2019-03-02T08:44:20.003Z,20.25
2019-03-02T08:45:14.184Z,20.25
2019-03-02T08:46:13.953Z,20.25
2019-03-02T08:47:14.166Z,20.25
2019-03-02T08:48:14.543Z,20.25
2019-03-02T08:49:14.003Z,20.25
2019-03-02T08:50:19.052Z,20.25
2019-03-02T08:51:14.324Z,20.25
2019-03-02T08:52:14.042Z,20.25
2019-03-02T08:53:14.166Z,20.25
2019-03-02T08:54:14.214Z,20.25
2019-03-02T08:55:14.040Z,20.25
2019-03-02T08:56:14.103Z,20.25
2019-03-02T08:57:14.384Z,20.25
2019-03-02T08:58:14.087Z,20.25
2019-03-02T08:59:14.169Z,20.25
2019-03-02T09:00:14.113Z,20.25
2019-03-02T09:01:19.922Z,20.25
2019-03-02T09:02:14.200Z,20.25
2019-03-02T09:03:13.961Z,20.25
2019-03-02T09:04:15.268Z,20.25
2019-03-02T09:05:14.190Z,20.25
2019-03-02T09:06:13.994Z,20.25
2019-03-02T09:07:14.052Z,20.25
2019-03-02T09:08:14.277Z,20.25
2019-03-02T09:09:14.017Z,20.25
2019-03-02T09:10:14.697Z,20.25
2019-03-02T09:11:14.200Z,20.25
2019-03-02T09:12:14.061Z,20.25
2019-03-02T09:13:14.113Z,20.25
2019-03-02T09:14:14.283Z,20.25
2019-03-02T09:15:13.950Z,20.25
2019-03-02T09:16:14.018Z,20.25
2019-03-02T09:17:19.029Z,20.25
2019-03-02T09:18:14.049Z,20.25
2019-03-02T09:19:24.295Z,20.25
2019-03-02T09:20:14.323Z,20.25
2019-03-02T09:21:14.175Z,20.25
2019-03-02T09:22:14.396Z,20.25
2019-03-02T09:23:15.315Z,20.25
2019-03-02T09:24:14.400Z,20.25
2019-03-02T09:25:14.174Z,20.25
2019-03-02T09:26:15.165Z,20.25
2019-03-02T09:27:14.316Z,20.25
2019-03-02T09:28:14.351Z,20.25
2019-03-02T09:29:14.067Z,20.25
2019-03-02T09:30:14.531Z,20.25
2019-03-02T09:31:13.965Z,20.25
2019-03-02T09:32:15.280Z,20.25
2019-03-02T09:33:14.310Z,20.25
2019-03-02T09:34:14.008Z,20.25
2019-03-02T09:35:17.419Z,20.25
2019-03-02T09:36:14.097Z,20.25
2019-03-02T09:37:14.326Z,20.25
2019-03-02T09:38:22.486Z,20.25
2019-03-02T09:39:14.064Z,20.25
2019-03-02T09:40:14.736Z,20.25
2019-03-02T09:41:13.968Z,20.25
2019-03-02T09:42:14.061Z,20.25
2019-03-02T09:43:17.270Z,20.25
2019-03-02T09:44:14.555Z,20.25
2019-03-02T09:45:14.157Z,20.25
2019-03-02T09:46:14.350Z,20.25
2019-03-02T09:47:13.988Z,20.25
2019-03-02T09:48:14.006Z,20.25
2019-03-02T09:49:14.158Z,20.25
2019-03-02T09:50:14.712Z,20.25
2019-03-02T09:51:14.644Z,20.25
2019-03-02T09:52:14.130Z,20.25
2019-03-02T09:53:14.305Z,20.25
2019-03-02T09:54:14.054Z,20.25
2019-03-02T09:55:21.116Z,20.25
2019-03-02T09:56:16.374Z,20.25
2019-03-02T09:57:14.017Z,20.25
2019-03-02T09:58:14.300Z,20.25
2019-03-02T09:59:14.145Z,20.25
2019-03-02T10:00:13.968Z,20.25
2019-03-02T10:01:14.140Z,20.25
2019-03-02T10:02:15.874Z,20.25
2019-03-02T10:03:14.013Z,20.25
2019-03-02T10:04:14.099Z,20.25
2019-03-02T10:05:15.687Z,20.25
2019-03-02T10:06:13.952Z,20.25
2019-03-02T10:07:14.082Z,20.25
2019-03-02T10:08:14.425Z,20.25
2019-03-02T10:09:13.920Z,20.25
2019-03-02T10:10:14.113Z,20.25
2019-03-02T10:11:14.172Z,20.25
2019-03-02T10:12:15.350Z,20.25
2019-03-02T10:13:14.172Z,20.25
2019-03-02T10:14:14.147Z,20.25
2019-03-02T10:15:14.004Z,20.25
2019-03-02T10:16:14.148Z,20.25
2019-03-02T10:17:14.145Z,20.25
2019-03-02T10:18:14.990Z,20.25
2019-03-02T10:19:14.165Z,20.25
2019-03-02T10:20:14.126Z,20.25
2019-03-02T10:21:14.074Z,20.25
2019-03-02T10:22:14.059Z,20.25
2019-03-02T10:23:14.264Z,20.25
2019-03-02T10:24:18.184Z,20.25
2019-03-02T10:25:14.061Z,20.25
2019-03-02T10:26:14.245Z,20.25
2019-03-02T10:27:22.588Z,20.25
2019-03-02T10:28:14.209Z,20.25
2019-03-02T10:29:14.111Z,20.5
2019-03-02T10:30:13.982Z,20.5
2019-03-02T10:31:14.103Z,20.5
2019-03-02T10:32:14.146Z,20.5
2019-03-02T10:33:13.987Z,20.5
2019-03-02T10:34:14.188Z,20.5
2019-03-02T10:35:18.365Z,20.5
2019-03-02T10:36:14.075Z,20.5
2019-03-02T10:37:14.081Z,20.5
2019-03-02T10:38:20.208Z,20.5
2019-03-02T10:39:14.219Z,20.5
2019-03-02T10:40:14.134Z,20.5
2019-03-02T10:41:21.648Z,20.5
2019-03-02T10:42:13.990Z,20.5
2019-03-02T10:43:14.175Z,20.5
2019-03-02T10:44:14.225Z,20.5
2019-03-02T10:45:14.094Z,20.5
2019-03-02T10:46:14.023Z,20.5
2019-03-02T10:47:15.212Z,20.5
2019-03-02T10:48:14.291Z,20.5
2019-03-02T10:49:14.086Z,20.5
2019-03-02T10:50:14.145Z,20.5
2019-03-02T10:51:14.108Z,20.5
2019-03-02T10:52:14.614Z,20.5
2019-03-02T10:53:14.270Z,20.5
2019-03-02T10:54:13.953Z,20.5
2019-03-02T10:55:14.130Z,20.5
2019-03-02T10:56:14.148Z,20.5
2019-03-02T10:57:13.945Z,20.5
2019-03-02T10:58:14.143Z,20.5
2019-03-02T10:59:16.616Z,20.5
2019-03-02T11:00:13.997Z,20.5
2019-03-02T11:01:14.128Z,20.5
2019-03-02T11:02:21.201Z,20.5
2019-03-02T11:03:14.312Z,20.5
2019-03-02T11:04:13.983Z,20.5
2019-03-02T11:05:21.167Z,20.5
2019-03-02T11:06:14.231Z,20.5
2019-03-02T11:07:14.134Z,20.75
2019-03-02T11:08:14.099Z,20.5
2019-03-02T11:09:22.890Z,20.75
2019-03-02T11:10:17.588Z,20.75
2019-03-02T11:11:14.030Z,20.5
2019-03-02T11:12:14.155Z,20.5
2019-03-02T11:13:20.870Z,20.5
2019-03-02T11:14:14.056Z,20.5
2019-03-02T11:15:14.204Z,20.5
2019-03-02T11:16:14.002Z,20.75
2019-03-02T11:17:14.177Z,20.5
2019-03-02T11:18:14.218Z,20.5
2019-03-02T11:19:14.264Z,20.5
2019-03-02T11:20:14.094Z,20.5
2019-03-02T11:21:14.235Z,20.5
2019-03-02T11:22:16.768Z,20.5
2019-03-02T11:23:23.292Z,20.5
2019-03-02T11:24:14.191Z,20.5
2019-03-02T11:25:13.942Z,20.75
2019-03-02T11:26:14.046Z,20.75
2019-03-02T11:27:14.190Z,20.75
2019-03-02T11:28:14.044Z,20.75
2019-03-02T11:29:13.999Z,20.75
2019-03-02T11:30:14.307Z,20.75
2019-03-02T11:31:14.463Z,20.75
2019-03-02T11:32:21.531Z,20.75
2019-03-02T11:33:14.109Z,20.75
2019-03-02T11:34:13.979Z,20.75
2019-03-02T11:35:14.061Z,20.75
2019-03-02T11:36:15.242Z,20.75
2019-03-02T11:37:13.975Z,20.75
2019-03-02T11:38:13.991Z,20.75
2019-03-02T11:39:18.518Z,20.75
2019-03-02T11:40:14.173Z,20.75
2019-03-02T11:41:13.956Z,20.75
2019-03-02T11:42:15.084Z,20.75
2019-03-02T11:43:17.423Z,20.75
2019-03-02T11:44:13.980Z,20.75
2019-03-02T11:45:14.804Z,20.75
2019-03-02T11:46:14.271Z,20.75
2019-03-02T11:47:13.992Z,20.75
2019-03-02T11:48:17.557Z,20.75
2019-03-02T11:49:14.138Z,20.75
2019-03-02T11:50:15.832Z,20.75
2019-03-02T11:51:14.121Z,20.75
2019-03-02T11:52:14.528Z,20.75
2019-03-02T11:53:17.185Z,20.75
2019-03-02T11:54:14.327Z,20.75
2019-03-02T11:55:14.176Z,20.75
2019-03-02T11:56:27.543Z,20.75
2019-03-02T11:57:14.070Z,20.75
2019-03-02T11:58:14.240Z,20.75
2019-03-02T11:59:13.966Z,20.75
2019-03-02T12:00:14.145Z,20.75
2019-03-02T12:01:14.114Z,20.75
2019-03-02T12:02:24.840Z,20.75
2019-03-02T12:03:14.096Z,20.75
2019-03-02T12:04:16.446Z,20.75
2019-03-02T12:05:13.895Z,20.75
2019-03-02T12:06:14.018Z,20.75
2019-03-02T12:07:14.193Z,20.75
2019-03-02T12:08:13.953Z,20.75
2019-03-02T12:09:14.084Z,20.75
2019-03-02T12:10:14.129Z,20.75
2019-03-02T12:11:13.935Z,20.5
2019-03-02T12:12:14.076Z,20.5
2019-03-02T12:13:14.089Z,20.75
2019-03-02T12:14:14.054Z,20.75
2019-03-02T12:15:14.273Z,20.75
2019-03-02T12:16:14.161Z,20.75
2019-03-02T12:17:14.092Z,20.75
2019-03-02T12:18:19.748Z,20.75
2019-03-02T12:19:14.083Z,20.75
2019-03-02T12:20:14.530Z,20.75
2019-03-02T12:21:14.127Z,20.75
2019-03-02T12:22:14.251Z,20.75
2019-03-02T12:23:14.277Z,20.75
2019-03-02T12:24:23.212Z,20.75
2019-03-02T12:25:14.305Z,20.75
2019-03-02T12:26:14.087Z,20.75
2019-03-02T12:27:14.137Z,20.75
2019-03-02T12:28:14.207Z,20.75
2019-03-02T12:29:15.108Z,20.75
2019-03-02T12:30:14.141Z,20.75
2019-03-02T12:31:13.967Z,20.75
2019-03-02T12:32:14.023Z,20.75
2019-03-02T12:33:22.388Z,20.75
2019-03-02T12:34:13.957Z,20.75
2019-03-02T12:35:14.036Z,20.75
2019-03-02T12:36:17.393Z,20.75
2019-03-02T12:37:14.187Z,20.75
2019-03-02T12:38:14.072Z,20.75
2019-03-02T12:39:14.142Z,20.75
2019-03-02T12:40:14.170Z,20.75
2019-03-02T12:41:16.816Z,20.75
2019-03-02T12:42:14.113Z,20.75
2019-03-02T12:43:14.191Z,20.75
2019-03-02T12:44:22.552Z,20.75
2019-03-02T12:45:14.049Z,20.75
2019-03-02T12:46:17.157Z,20.75
2019-03-02T12:47:13.977Z,20.75
2019-03-02T12:48:14.116Z,20.75
2019-03-02T12:49:14.213Z,20.75
2019-03-02T12:50:13.975Z,20.75
2019-03-02T12:51:14.037Z,20.75
2019-03-02T12:52:16.688Z,20.75
2019-03-02T12:53:16.388Z,20.75
2019-03-02T12:54:14.381Z,20.75
2019-03-02T12:55:22.017Z,20.75
2019-03-02T12:56:13.993Z,20.75
2019-03-02T12:57:14.469Z,20.75
2019-03-02T12:58:14.292Z,20.75
2019-03-02T12:59:13.958Z,20.75
2019-03-02T13:00:14.169Z,20.75
2019-03-02T13:01:14.124Z,20.75
2019-03-02T13:02:15.431Z,20.75
2019-03-02T13:03:14.101Z,20.75
2019-03-02T13:04:14.123Z,20.75
2019-03-02T13:05:21.020Z,20.75
2019-03-02T13:06:14.092Z,20.75
2019-03-02T13:07:15.774Z,20.75
2019-03-02T13:08:15.515Z,20.75
2019-03-02T13:09:14.128Z,20.75
2019-03-02T13:10:16.208Z,20.75
2019-03-02T13:11:14.036Z,20.75
2019-03-02T13:12:14.071Z,20.75
2019-03-02T13:13:21.551Z,20.75